OING

Details ICAO OING (GBT)
Name GORGAN
Region Iran
Timezone Asia/Tehran (UTC+4.5)
Plans Departing 4
Arriving 8
Stats Elevation -24 ft / -7 m (AMSL)
Location 36.909379° 54.401339°
Runways 1
Magnetic Variation 4.916° E
Sunrise 2018-05-26 01:08:50 UTC / 2018-05-26 05:38:50 Local
Sunset 2018-05-26 15:32:53 UTC / 2018-05-26 20:02:53 Local
Advertisement - Login to hide

Runways

ID Width Length Bearing (true) Bearing (mag) Surface Threshold Offset Overrun Length
14 148 ft / 45 m 7,540 ft / 2,298 m 134.03° 129.11° Asphalt 0 ft / 0 m 0 ft / 0 m
32 148 ft / 45 m 7,540 ft / 2,298 m 314.04° 309.12° Asphalt 0 ft / 0 m 197 ft / 60 m

Map

Weather


0- 5 10 15 20 25 30 35+ Temperature / ° C

Clouds and Precipitation
Forecast for 2018-05-26 12:00 UTC. Updated 2 hours ago

Ground ~20,000 ft ~40,000 ft Winds

METAR

OING 261200Z 25024KT 9999 FEW040TCU SCT100 35/16 Q1008

TAF

Not found

Frequencies

Tower 121.85 MHz TWR
Tower 118.75 MHz TWR
Warning: Do not use this data for real-world aviation or navigation. No guarantee of current accuracy is given.